createdAt,value
2023-05-21T00:01:16.139Z,13.59
2023-05-21T00:03:30.773Z,13.62
2023-05-21T00:05:47.353Z,13.66
2023-05-21T00:08:00.080Z,13.70
2023-05-21T00:10:13.179Z,13.74
2023-05-21T00:12:26.059Z,13.78
2023-05-21T00:14:38.617Z,13.82
2023-05-21T00:16:51.296Z,13.84
2023-05-21T00:19:03.988Z,13.85
2023-05-21T00:21:26.069Z,13.87
2023-05-21T00:23:39.734Z,13.85
2023-05-21T00:25:53.143Z,13.82
2023-05-21T00:28:05.826Z,13.78
2023-05-21T00:30:18.436Z,13.75
2023-05-21T00:32:31.037Z,13.73
2023-05-21T00:34:44.332Z,13.70
2023-05-21T00:36:57.270Z,13.67
2023-05-21T00:39:09.967Z,13.63
2023-05-21T00:41:22.764Z,13.60
2023-05-21T00:43:35.359Z,13.57
2023-05-21T00:45:48.404Z,13.54
2023-05-21T00:48:02.810Z,13.53
2023-05-21T00:50:15.783Z,13.48
2023-05-21T00:52:28.680Z,13.44
2023-05-21T00:54:41.321Z,13.45
2023-05-21T00:56:54.638Z,13.47
2023-05-21T00:59:07.500Z,13.47
2023-05-21T01:01:20.647Z,13.50
2023-05-21T01:03:38.447Z,13.52
2023-05-21T01:05:53.096Z,13.55
2023-05-21T01:08:07.598Z,13.56
2023-05-21T01:10:20.361Z,13.58
2023-05-21T01:12:34.413Z,13.60
2023-05-21T01:14:48.216Z,13.63
2023-05-21T01:17:02.251Z,13.65
2023-05-21T01:19:17.667Z,13.66
2023-05-21T01:21:30.880Z,13.67
2023-05-21T01:23:43.527Z,13.65
2023-05-21T01:25:56.394Z,13.65
2023-05-21T01:28:09.281Z,13.64
2023-05-21T01:30:23.674Z,13.60
2023-05-21T01:32:49.565Z,13.55
2023-05-21T01:35:08.120Z,13.49
2023-05-21T01:37:29.979Z,13.43
2023-05-21T01:39:48.502Z,13.40
2023-05-21T01:42:04.078Z,13.37
2023-05-21T01:44:18.926Z,13.34
2023-05-21T01:46:35.820Z,13.31
2023-05-21T01:48:50.449Z,13.27
2023-05-21T01:51:05.942Z,13.22
2023-05-21T01:53:18.523Z,13.19
2023-05-21T01:55:31.603Z,13.15
2023-05-21T01:57:44.225Z,13.12
2023-05-21T01:59:57.886Z,13.10
2023-05-21T02:02:10.909Z,13.08
2023-05-21T02:04:23.678Z,13.06
2023-05-21T02:06:36.812Z,13.04
2023-05-21T02:08:49.626Z,12.99
2023-05-21T02:11:02.239Z,12.94
2023-05-21T02:13:14.831Z,12.91
2023-05-21T02:15:27.443Z,12.88
2023-05-21T02:17:40.582Z,12.84
2023-05-21T02:19:53.197Z,12.80
2023-05-21T02:22:05.801Z,12.78
2023-05-21T02:24:18.367Z,12.75
2023-05-21T02:26:31.267Z,12.74
2023-05-21T02:28:44.337Z,12.67
2023-05-21T02:30:57.221Z,12.57
2023-05-21T02:33:14.169Z,12.54
2023-05-21T02:35:26.993Z,12.51
2023-05-21T02:37:40.714Z,12.49
2023-05-21T02:39:54.679Z,12.47
2023-05-21T02:42:07.241Z,12.41
2023-05-21T02:44:20.929Z,12.37
2023-05-21T02:46:33.556Z,12.34
2023-05-21T02:48:46.156Z,12.30
2023-05-21T02:50:59.249Z,12.29
2023-05-21T02:53:11.853Z,12.25
2023-05-21T02:55:24.476Z,12.24
2023-05-21T02:57:37.113Z,12.22
2023-05-21T02:59:49.833Z,12.21
2023-05-21T03:02:02.556Z,12.22
2023-05-21T03:04:17.161Z,12.26
2023-05-21T03:06:29.748Z,12.25
2023-05-21T03:08:42.309Z,12.24
2023-05-21T03:10:55.312Z,12.23
2023-05-21T03:13:09.683Z,12.23
2023-05-21T03:15:24.046Z,12.25
2023-05-21T03:17:36.903Z,12.26
2023-05-21T03:19:49.495Z,12.27
2023-05-21T03:22:03.650Z,12.26
2023-05-21T03:24:16.267Z,12.25
2023-05-21T03:26:32.333Z,12.27
2023-05-21T03:28:44.907Z,12.26
2023-05-21T03:30:57.530Z,12.27
2023-05-21T03:33:11.177Z,12.27
2023-05-21T03:35:23.830Z,12.27
2023-05-21T03:37:36.404Z,12.28
2023-05-21T03:39:48.978Z,12.30
2023-05-21T03:42:01.619Z,12.35
2023-05-21T03:44:14.196Z,12.38
2023-05-21T03:46:27.946Z,12.41
2023-05-21T03:48:40.650Z,12.42
2023-05-21T03:50:53.263Z,12.46
2023-05-21T03:53:05.983Z,12.52
2023-05-21T03:55:18.622Z,12.58
2023-05-21T03:57:31.215Z,12.64
2023-05-21T03:59:43.771Z,12.70
2023-05-21T04:01:56.448Z,12.75
2023-05-21T04:04:09.073Z,12.80
2023-05-21T04:06:21.782Z,12.89
2023-05-21T04:08:34.383Z,12.96
2023-05-21T04:10:46.966Z,13.05
2023-05-21T04:12:59.561Z,13.12
2023-05-21T04:15:12.559Z,13.22
2023-05-21T04:17:26.860Z,13.32
2023-05-21T04:19:39.776Z,13.42
2023-05-21T04:21:52.414Z,13.53
2023-05-21T04:24:05.129Z,13.63
2023-05-21T04:26:17.725Z,13.74
2023-05-21T04:28:30.430Z,13.82
2023-05-21T04:30:43.029Z,13.91
2023-05-21T04:32:55.895Z,14.01
2023-05-21T04:35:08.728Z,14.11
2023-05-21T04:37:24.562Z,14.23
2023-05-21T04:39:37.263Z,14.33
2023-05-21T04:41:50.762Z,14.43
2023-05-21T04:44:03.490Z,14.53
2023-05-21T04:46:16.256Z,14.64
2023-05-21T04:48:29.009Z,14.74
2023-05-21T04:50:41.729Z,14.85
2023-05-21T04:52:54.759Z,14.97
2023-05-21T04:55:08.123Z,15.06
2023-05-21T04:57:21.750Z,15.17
2023-05-21T04:59:37.704Z,15.24
2023-05-21T05:01:50.373Z,15.34
2023-05-21T05:04:03.105Z,15.48
2023-05-21T05:06:16.691Z,15.61
2023-05-21T05:08:29.326Z,15.72
2023-05-21T05:10:41.895Z,15.84
2023-05-21T05:12:54.501Z,15.98
2023-05-21T05:15:07.670Z,16.12
2023-05-21T05:17:20.253Z,16.21
2023-05-21T05:19:33.009Z,16.34
2023-05-21T05:21:45.984Z,16.49
2023-05-21T05:23:58.555Z,16.65
2023-05-21T05:26:11.195Z,16.84
2023-05-21T05:28:23.935Z,17.01
2023-05-21T05:30:36.624Z,17.14
2023-05-21T05:32:49.300Z,17.31
2023-05-21T05:35:03.023Z,17.47
2023-05-21T05:37:15.823Z,17.61
2023-05-21T05:39:28.449Z,17.76
2023-05-21T05:41:41.148Z,17.92
2023-05-21T05:43:53.712Z,18.08
2023-05-21T05:46:06.353Z,18.22
2023-05-21T05:48:18.972Z,18.42
2023-05-21T05:50:31.626Z,18.60
2023-05-21T05:52:44.247Z,18.78
2023-05-21T05:54:56.814Z,18.91
2023-05-21T05:57:09.462Z,19.04
2023-05-21T05:59:22.109Z,19.15
2023-05-21T06:01:34.714Z,19.24
2023-05-21T06:03:47.514Z,19.40
2023-05-21T06:06:00.198Z,19.58
2023-05-21T06:08:12.751Z,19.71
2023-05-21T06:10:25.462Z,19.83
2023-05-21T06:12:38.040Z,19.96
2023-05-21T06:14:50.997Z,20.06
2023-05-21T06:17:03.751Z,20.18
2023-05-21T06:19:16.362Z,20.24
2023-05-21T06:21:28.954Z,20.30
2023-05-21T06:23:41.655Z,20.43
2023-05-21T06:25:54.247Z,20.49
2023-05-21T06:28:06.828Z,20.53
2023-05-21T06:30:19.459Z,20.61
2023-05-21T06:32:32.137Z,20.68
2023-05-21T06:34:44.833Z,20.70
2023-05-21T06:36:57.432Z,20.79
2023-05-21T06:39:10.322Z,20.93
2023-05-21T06:41:23.145Z,21.01
2023-05-21T06:43:35.717Z,21.15
2023-05-21T06:45:48.549Z,21.28
2023-05-21T06:48:01.240Z,21.48
2023-05-21T06:50:13.844Z,21.66
2023-05-21T06:52:29.279Z,21.76
2023-05-21T06:54:43.964Z,21.75
2023-05-21T06:56:56.575Z,21.78
2023-05-21T06:59:09.370Z,21.88
2023-05-21T07:01:23.121Z,22.02
2023-05-21T07:03:36.713Z,22.13
2023-05-21T07:05:49.588Z,22.26
2023-05-21T07:08:02.450Z,22.40
2023-05-21T07:10:15.191Z,22.43
2023-05-21T07:12:27.738Z,22.45
2023-05-21T07:14:40.287Z,22.54
2023-05-21T07:16:53.352Z,22.64
2023-05-21T07:19:06.078Z,22.75
2023-05-21T07:21:18.695Z,22.92
2023-05-21T07:23:31.435Z,23.00
2023-05-21T07:25:44.126Z,23.06
2023-05-21T07:27:56.722Z,23.19
2023-05-21T07:30:09.977Z,23.39
2023-05-21T07:32:22.694Z,23.57
2023-05-21T07:34:35.539Z,23.65
2023-05-21T07:36:48.136Z,23.77
2023-05-21T07:39:01.009Z,23.89
2023-05-21T07:41:13.654Z,24.05
2023-05-21T07:43:26.307Z,24.25
2023-05-21T07:45:39.063Z,24.45
2023-05-21T07:47:51.778Z,24.58
2023-05-21T07:50:04.932Z,24.67
2023-05-21T07:52:17.542Z,24.74
2023-05-21T07:54:30.138Z,24.97
2023-05-21T07:56:42.875Z,25.12
2023-05-21T07:58:55.456Z,25.19
2023-05-21T08:01:08.055Z,25.32
2023-05-21T08:03:20.923Z,25.49
2023-05-21T08:05:33.651Z,25.66
2023-05-21T08:07:46.318Z,25.83
2023-05-21T08:09:59.157Z,26.03
2023-05-21T08:12:15.671Z,26.22
2023-05-21T08:14:28.303Z,26.36
2023-05-21T08:16:40.960Z,26.43
2023-05-21T08:18:53.638Z,26.57
2023-05-21T08:21:06.439Z,26.78
2023-05-21T08:23:19.030Z,27.10
2023-05-21T08:25:31.667Z,27.26
2023-05-21T08:27:44.235Z,27.35
2023-05-21T08:29:56.851Z,27.43
2023-05-21T08:32:10.038Z,27.49
2023-05-21T08:34:23.165Z,27.70
2023-05-21T08:36:36.054Z,28.07
2023-05-21T08:38:48.719Z,28.51
2023-05-21T08:41:01.406Z,28.69
2023-05-21T08:43:16.432Z,28.62
2023-05-21T08:45:37.904Z,28.81
2023-05-21T08:47:58.567Z,29.02
2023-05-21T08:50:13.366Z,29.30
2023-05-21T08:52:26.653Z,29.62
2023-05-21T08:54:39.882Z,29.70
2023-05-21T08:56:53.258Z,29.69
2023-05-21T08:59:06.646Z,29.78
2023-05-21T09:01:20.090Z,29.86
2023-05-21T09:03:33.442Z,29.89
2023-05-21T09:05:46.647Z,29.97
2023-05-21T09:08:08.010Z,30.02
2023-05-21T09:10:25.385Z,29.93
2023-05-21T09:12:38.066Z,30.04
2023-05-21T09:14:52.490Z,30.29
2023-05-21T09:17:05.312Z,30.43
2023-05-21T09:19:21.481Z,30.55
2023-05-21T09:21:34.127Z,30.92
2023-05-21T09:23:47.152Z,31.11
2023-05-21T09:26:00.537Z,31.10
2023-05-21T09:28:15.071Z,31.26
2023-05-21T09:30:29.726Z,31.60
2023-05-21T09:32:44.669Z,31.75
2023-05-21T09:34:57.329Z,31.84
2023-05-21T09:37:23.642Z,31.94
2023-05-21T09:39:40.821Z,31.93
2023-05-21T09:41:53.397Z,32.15
2023-05-21T09:44:06.132Z,32.42
2023-05-21T09:46:25.626Z,32.51
2023-05-21T09:48:43.208Z,32.59
2023-05-21T09:51:07.779Z,32.38
2023-05-21T09:53:20.378Z,32.41
2023-05-21T09:55:36.314Z,32.63
2023-05-21T09:57:50.953Z,32.91
2023-05-21T10:00:06.432Z,33.04
2023-05-21T10:02:23.291Z,33.19
2023-05-21T10:04:36.533Z,33.06
2023-05-21T10:06:50.143Z,33.14
2023-05-21T10:09:07.371Z,33.15
2023-05-21T10:11:23.820Z,33.19
2023-05-21T10:13:41.688Z,33.11
2023-05-21T10:16:01.382Z,33.26
2023-05-21T10:18:14.808Z,33.52
2023-05-21T10:20:27.539Z,33.74
2023-05-21T10:22:40.898Z,33.76
2023-05-21T10:24:54.694Z,34.01
2023-05-21T10:27:07.772Z,34.34
2023-05-21T10:29:21.629Z,34.56
2023-05-21T10:31:35.022Z,34.76
2023-05-21T10:33:48.798Z,34.74
2023-05-21T10:36:01.970Z,34.89
2023-05-21T10:38:18.634Z,35.38
2023-05-21T10:40:31.494Z,35.44
2023-05-21T10:43:23.005Z,35.36
2023-05-21T10:45:53.950Z,35.08
2023-05-21T10:48:28.750Z,34.93
2023-05-21T10:51:02.234Z,34.95
2023-05-21T10:53:32.955Z,35.05
2023-05-21T10:56:14.229Z,35.35
2023-05-21T10:58:32.868Z,35.68
2023-05-21T11:00:45.844Z,35.95
2023-05-21T11:02:59.311Z,36.14
2023-05-21T11:05:12.211Z,36.46
2023-05-21T11:07:50.551Z,36.73
2023-05-21T11:10:32.825Z,36.85
2023-05-21T11:13:07.058Z,36.89
2023-05-21T11:15:20.617Z,37.05
2023-05-21T11:17:40.718Z,36.99
2023-05-21T11:19:54.649Z,36.98
2023-05-21T11:22:21.643Z,37.36
2023-05-21T11:24:37.669Z,37.61
2023-05-21T11:26:52.660Z,37.88
2023-05-21T11:29:05.253Z,38.19
2023-05-21T11:31:29.828Z,37.94
2023-05-21T11:33:42.536Z,37.40
2023-05-21T11:35:55.066Z,37.38
2023-05-21T11:38:09.213Z,37.53
2023-05-21T11:40:26.676Z,37.28
2023-05-21T11:42:39.702Z,37.08
2023-05-21T11:44:52.305Z,37.29
2023-05-21T11:47:05.779Z,37.52
2023-05-21T11:49:18.592Z,37.42
2023-05-21T11:51:31.846Z,37.25
2023-05-21T11:53:44.689Z,37.22
2023-05-21T11:55:57.895Z,37.26
2023-05-21T11:58:16.696Z,37.36
2023-05-21T12:00:29.337Z,37.13
2023-05-21T12:02:51.083Z,36.94
2023-05-21T12:05:04.043Z,37.04
2023-05-21T12:07:18.989Z,37.00
2023-05-21T12:09:31.584Z,36.87
2023-05-21T12:11:44.518Z,36.88
2023-05-21T12:13:57.204Z,36.77
2023-05-21T12:16:09.869Z,36.62
2023-05-21T12:18:22.700Z,36.21
2023-05-21T12:20:35.468Z,35.69
2023-05-21T12:22:51.155Z,35.22
2023-05-21T12:25:04.361Z,35.14
2023-05-21T12:27:18.260Z,35.17
2023-05-21T12:29:32.318Z,35.15
2023-05-21T12:31:49.684Z,35.31
2023-05-21T12:34:02.355Z,35.19
2023-05-21T12:36:23.060Z,35.13
2023-05-21T12:38:37.067Z,35.40
2023-05-21T12:40:49.655Z,35.57
2023-05-21T12:43:02.495Z,35.27
2023-05-21T12:45:15.994Z,34.92
2023-05-21T12:47:28.706Z,34.47
2023-05-21T12:49:43.016Z,34.23
2023-05-21T12:51:56.730Z,33.89
2023-05-21T12:54:13.306Z,33.66
2023-05-21T12:56:25.942Z,33.71
2023-05-21T12:58:39.480Z,33.86
2023-05-21T13:00:55.001Z,33.73
2023-05-21T13:03:07.775Z,33.53
2023-05-21T13:05:20.579Z,33.70
2023-05-21T13:07:35.262Z,33.97
2023-05-21T13:09:48.700Z,33.92
2023-05-21T13:12:01.288Z,33.83
2023-05-21T13:14:13.864Z,33.64
2023-05-21T13:16:26.567Z,33.60
2023-05-21T13:18:39.138Z,33.90
2023-05-21T13:20:51.781Z,34.27
2023-05-21T13:23:05.934Z,34.66
2023-05-21T13:25:24.401Z,34.92
2023-05-21T13:27:37.955Z,34.81
2023-05-21T13:29:50.516Z,34.55
2023-05-21T13:32:03.224Z,34.55
2023-05-21T13:34:15.914Z,34.60
2023-05-21T13:36:28.539Z,34.52
2023-05-21T13:38:41.102Z,34.27
2023-05-21T13:40:53.678Z,34.00
2023-05-21T13:43:06.368Z,33.83
2023-05-21T13:45:20.765Z,33.63
2023-05-21T13:47:33.800Z,33.40
2023-05-21T13:49:46.856Z,33.36
2023-05-21T13:52:00.837Z,33.23
2023-05-21T13:54:14.112Z,32.95
2023-05-21T13:56:26.849Z,32.62
2023-05-21T13:58:40.603Z,32.22
2023-05-21T14:00:54.219Z,31.65
2023-05-21T14:03:07.661Z,31.24
2023-05-21T14:05:20.360Z,30.98
2023-05-21T14:07:33.042Z,30.77
2023-05-21T14:09:47.568Z,30.67
2023-05-21T14:12:01.393Z,30.79
2023-05-21T14:14:18.745Z,30.84
2023-05-21T14:16:31.720Z,30.79
2023-05-21T14:18:44.558Z,30.86
2023-05-21T14:20:57.163Z,30.78
2023-05-21T14:23:09.953Z,30.78
2023-05-21T14:25:22.541Z,30.78
2023-05-21T14:27:37.602Z,30.90
2023-05-21T14:29:50.234Z,30.74
2023-05-21T14:32:02.986Z,30.51
2023-05-21T14:34:15.781Z,30.33
2023-05-21T14:36:28.867Z,30.11
2023-05-21T14:38:41.529Z,29.89
2023-05-21T14:40:54.349Z,29.63
2023-05-21T14:43:07.123Z,29.51
2023-05-21T14:45:19.881Z,29.45
2023-05-21T14:47:32.469Z,29.41
2023-05-21T14:49:45.090Z,29.30
2023-05-21T14:51:57.700Z,29.15
2023-05-21T14:54:10.392Z,29.24
2023-05-21T14:56:26.264Z,29.40
2023-05-21T14:58:38.935Z,29.57
2023-05-21T15:00:51.511Z,29.66
2023-05-21T15:03:05.108Z,29.60
2023-05-21T15:05:18.297Z,29.46
2023-05-21T15:07:30.928Z,29.45
2023-05-21T15:09:43.593Z,29.57
2023-05-21T15:11:56.185Z,29.63
2023-05-21T15:14:08.730Z,29.72
2023-05-21T15:16:21.390Z,29.70
2023-05-21T15:18:34.028Z,29.67
2023-05-21T15:20:46.597Z,29.67
2023-05-21T15:23:15.224Z,29.72
2023-05-21T15:25:29.578Z,29.71
2023-05-21T15:27:42.191Z,29.72
2023-05-21T15:29:54.790Z,29.63
2023-05-21T15:32:07.469Z,29.53
2023-05-21T15:34:20.157Z,29.42
2023-05-21T15:36:32.773Z,29.39
2023-05-21T15:38:45.588Z,29.33
2023-05-21T15:40:58.193Z,29.24
2023-05-21T15:43:10.819Z,29.12
2023-05-21T15:45:24.456Z,29.01
2023-05-21T15:47:37.126Z,28.90
2023-05-21T15:49:49.717Z,28.81
2023-05-21T15:52:03.012Z,28.73
2023-05-21T15:54:15.899Z,28.76
2023-05-21T15:56:28.544Z,28.81
2023-05-21T15:58:41.182Z,28.74
2023-05-21T16:00:53.835Z,28.58
2023-05-21T16:03:06.617Z,28.43
2023-05-21T16:05:19.308Z,28.28
2023-05-21T16:07:31.909Z,28.29
2023-05-21T16:09:44.565Z,28.32
2023-05-21T16:11:57.189Z,28.20
2023-05-21T16:14:10.018Z,28.11
2023-05-21T16:16:24.826Z,27.97
2023-05-21T16:18:37.569Z,27.83
2023-05-21T16:20:50.169Z,27.72
2023-05-21T16:23:03.714Z,27.66
2023-05-21T16:25:16.420Z,27.60
2023-05-21T16:27:29.059Z,27.48
2023-05-21T16:29:42.050Z,27.32
2023-05-21T16:31:54.727Z,27.20
2023-05-21T16:34:07.496Z,27.05
2023-05-21T16:36:20.129Z,26.90
2023-05-21T16:38:32.756Z,26.80
2023-05-21T16:40:45.763Z,26.68
2023-05-21T16:43:01.303Z,26.57
2023-05-21T16:45:20.458Z,26.47
2023-05-21T16:47:33.185Z,26.41
2023-05-21T16:49:46.048Z,26.38
2023-05-21T16:51:58.671Z,26.30
2023-05-21T16:54:11.206Z,26.26
2023-05-21T16:56:23.731Z,26.17
2023-05-21T16:58:36.359Z,26.08
2023-05-21T17:00:48.982Z,25.98
2023-05-21T17:03:01.888Z,25.90
2023-05-21T17:05:14.897Z,25.78
2023-05-21T17:07:27.517Z,25.63
2023-05-21T17:09:40.093Z,25.54
2023-05-21T17:11:52.707Z,25.44
2023-05-21T17:14:05.263Z,25.34
2023-05-21T17:16:17.963Z,25.24
2023-05-21T17:18:31.367Z,25.15
2023-05-21T17:20:43.956Z,25.04
2023-05-21T17:22:56.710Z,24.95
2023-05-21T17:25:09.643Z,24.87
2023-05-21T17:27:22.256Z,24.81
2023-05-21T17:29:34.873Z,24.74
2023-05-21T17:31:47.517Z,24.65
2023-05-21T17:34:00.852Z,24.55
2023-05-21T17:36:13.539Z,24.45
2023-05-21T17:38:26.057Z,24.38
2023-05-21T17:40:38.645Z,24.30
2023-05-21T17:42:52.132Z,24.22
2023-05-21T17:45:05.131Z,24.13
2023-05-21T17:47:17.726Z,24.09
2023-05-21T17:49:30.340Z,24.01
2023-05-21T17:51:43.649Z,23.96
2023-05-21T17:53:56.276Z,23.88
2023-05-21T17:56:11.232Z,23.82
2023-05-21T17:58:23.798Z,23.73
2023-05-21T18:00:36.499Z,23.62
2023-05-21T18:02:49.087Z,23.54
2023-05-21T18:05:02.806Z,23.45
2023-05-21T18:07:16.069Z,23.38
2023-05-21T18:09:29.086Z,23.32
2023-05-21T18:11:44.726Z,23.23
2023-05-21T18:13:57.478Z,23.11
2023-05-21T18:16:10.586Z,23.06
2023-05-21T18:18:23.451Z,23.03
2023-05-21T18:20:36.985Z,23.00
2023-05-21T18:22:49.820Z,22.96
2023-05-21T18:25:03.903Z,22.91
2023-05-21T18:27:16.672Z,22.84
2023-05-21T18:29:29.329Z,22.77
2023-05-21T18:31:44.513Z,22.75
2023-05-21T18:33:58.456Z,22.67
2023-05-21T18:36:11.569Z,22.61
2023-05-21T18:38:24.318Z,22.52
2023-05-21T18:40:38.091Z,22.43
2023-05-21T18:42:51.283Z,22.35
2023-05-21T18:45:08.411Z,22.27
2023-05-21T18:47:21.425Z,22.15
2023-05-21T18:49:35.824Z,22.05
2023-05-21T18:51:49.060Z,21.95
2023-05-21T18:54:01.688Z,21.86
2023-05-21T18:56:14.959Z,21.77
2023-05-21T18:58:29.301Z,21.68
2023-05-21T19:00:43.546Z,21.56
2023-05-21T19:02:56.352Z,21.50
2023-05-21T19:05:09.909Z,21.42
2023-05-21T19:07:22.582Z,21.33
2023-05-21T19:09:35.268Z,21.26
2023-05-21T19:11:47.935Z,21.19
2023-05-21T19:14:00.830Z,21.12
2023-05-21T19:16:14.413Z,21.07
2023-05-21T19:18:32.164Z,20.96
2023-05-21T19:20:44.751Z,20.86
2023-05-21T19:22:57.631Z,20.82
2023-05-21T19:25:10.872Z,20.78
2023-05-21T19:27:23.566Z,20.70
2023-05-21T19:29:36.161Z,20.59
2023-05-21T19:31:48.966Z,20.53
2023-05-21T19:34:01.630Z,20.44
2023-05-21T19:36:14.464Z,20.34
2023-05-21T19:38:27.857Z,20.26
2023-05-21T19:40:42.473Z,20.20
2023-05-21T19:42:55.068Z,20.16
2023-05-21T19:45:09.572Z,20.10
2023-05-21T19:47:22.609Z,20.03
2023-05-21T19:49:35.604Z,19.94
2023-05-21T19:51:49.493Z,19.79
2023-05-21T19:54:02.432Z,19.69
2023-05-21T19:56:16.111Z,19.63
2023-05-21T19:58:30.405Z,19.58
2023-05-21T20:00:47.291Z,19.53
2023-05-21T20:03:01.302Z,19.46
2023-05-21T20:05:14.462Z,19.39
2023-05-21T20:07:27.149Z,19.29
2023-05-21T20:09:40.111Z,19.22
2023-05-21T20:11:53.163Z,19.16
2023-05-21T20:14:06.350Z,19.12
2023-05-21T20:16:20.142Z,19.06
2023-05-21T20:18:33.090Z,19.00
2023-05-21T20:20:46.616Z,18.95
2023-05-21T20:23:03.204Z,18.90
2023-05-21T20:25:15.786Z,18.82
2023-05-21T20:27:28.401Z,18.74
2023-05-21T20:29:43.038Z,18.67
2023-05-21T20:31:55.725Z,18.59
2023-05-21T20:34:10.413Z,18.55
2023-05-21T20:36:23.787Z,18.51
2023-05-21T20:38:38.031Z,18.47
2023-05-21T20:40:50.685Z,18.41
2023-05-21T20:43:03.283Z,18.36
2023-05-21T20:45:16.266Z,18.29
2023-05-21T20:47:33.818Z,18.21
2023-05-21T20:49:48.108Z,18.12
2023-05-21T20:52:01.366Z,18.05
2023-05-21T20:54:14.206Z,17.99
2023-05-21T20:56:40.725Z,17.94
2023-05-21T20:58:54.620Z,17.84
2023-05-21T21:01:07.632Z,17.79
2023-05-21T21:03:21.902Z,17.75
2023-05-21T21:05:34.932Z,17.72
2023-05-21T21:07:47.586Z,17.69
2023-05-21T21:10:00.272Z,17.66
2023-05-21T21:12:24.628Z,17.64
2023-05-21T21:14:41.907Z,17.60
2023-05-21T21:16:54.524Z,17.57
2023-05-21T21:19:07.216Z,17.54
2023-05-21T21:21:19.984Z,17.52
2023-05-21T21:23:33.257Z,17.47
2023-05-21T21:25:46.000Z,17.43
2023-05-21T21:27:58.704Z,17.41
2023-05-21T21:30:11.614Z,17.37
2023-05-21T21:32:26.149Z,17.34
2023-05-21T21:34:38.804Z,17.30
2023-05-21T21:36:51.559Z,17.26
2023-05-21T21:39:04.313Z,17.22
2023-05-21T21:41:17.057Z,17.19
2023-05-21T21:43:29.640Z,17.16
2023-05-21T21:45:42.422Z,17.13
2023-05-21T21:47:55.295Z,17.11
2023-05-21T21:50:12.714Z,17.10
2023-05-21T21:52:28.591Z,17.10
2023-05-21T21:54:41.287Z,17.09
2023-05-21T21:56:54.388Z,17.07
2023-05-21T21:59:07.026Z,17.06
2023-05-21T22:01:19.773Z,17.03
2023-05-21T22:03:34.374Z,16.99
2023-05-21T22:05:46.945Z,16.97
2023-05-21T22:07:59.615Z,16.94
2023-05-21T22:10:16.505Z,16.91
2023-05-21T22:12:30.179Z,16.87
2023-05-21T22:14:43.749Z,16.85
2023-05-21T22:17:00.315Z,16.83
2023-05-21T22:19:15.773Z,16.81
2023-05-21T22:21:32.701Z,16.79
2023-05-21T22:23:45.454Z,16.76
2023-05-21T22:25:58.011Z,16.73
2023-05-21T22:28:10.590Z,16.71
2023-05-21T22:30:23.199Z,16.68
2023-05-21T22:32:37.572Z,16.66
2023-05-21T22:34:50.257Z,16.64
2023-05-21T22:37:02.936Z,16.64
2023-05-21T22:39:16.848Z,16.63
2023-05-21T22:41:29.431Z,16.61
2023-05-21T22:43:42.674Z,16.58
2023-05-21T22:45:55.364Z,16.55
2023-05-21T22:48:09.570Z,16.52
2023-05-21T22:50:23.393Z,16.50
2023-05-21T22:52:36.834Z,16.48
2023-05-21T22:54:50.264Z,16.47
2023-05-21T22:57:03.230Z,16.46
2023-05-21T22:59:15.822Z,16.43
2023-05-21T23:01:28.459Z,16.40
2023-05-21T23:03:41.151Z,16.38
2023-05-21T23:05:53.715Z,16.37
2023-05-21T23:08:06.439Z,16.36
2023-05-21T23:10:19.039Z,16.32
2023-05-21T23:12:31.663Z,16.28
2023-05-21T23:14:44.265Z,16.24
2023-05-21T23:17:01.788Z,16.22
2023-05-21T23:19:15.586Z,16.19
2023-05-21T23:21:28.386Z,16.14
2023-05-21T23:23:41.216Z,16.09
2023-05-21T23:25:57.377Z,16.06
2023-05-21T23:28:10.026Z,16.03
2023-05-21T23:30:22.631Z,16.03
2023-05-21T23:32:35.402Z,16.00
2023-05-21T23:34:48.292Z,15.97
2023-05-21T23:37:01.020Z,15.93
2023-05-21T23:39:13.659Z,15.88
2023-05-21T23:41:27.571Z,15.84
2023-05-21T23:43:40.311Z,15.80
2023-05-21T23:45:52.930Z,15.77
2023-05-21T23:48:06.099Z,15.74
2023-05-21T23:50:18.733Z,15.71
2023-05-21T23:52:31.563Z,15.68
2023-05-21T23:54:45.307Z,15.65
2023-05-21T23:56:57.961Z,15.60
2023-05-21T23:59:10.700Z,15.57
